Abbotsford, Wisconsin
Current Conditions -  °F | °C
As of 11:35 PM on Saturday 25 Oct 2014 (Local Time) from KMDZ Reporting Station
Clear Clear  
Wind Chill:   Ceiling: Unl
Heat Index:   Visibility: 10mi
Dew Point: -4°   Wind: 7mph
Humidity: 51%   Direction: 290°WNW
Pressure: 29.97"   Gusts: NA
Location:  44.95°N, 90.32°W
Report Text: KMDZ 260435Z AUTO 29006KT 10SM CLR 06/M04 A2997 RMK AO2 T00571037
Loading
Personal Weather Stations






























Interactive Weather Map
Tropical Storm Tracking
New forecast layout! Learn more

10-Day Weather Forecast

Advertisements
Track Severe Weather on mobile